(°F)
43°
42°
42°
41°
40°
39°
39°
(°F)
33°
33°
33°
33°
32°
30°
30°
WSW
WSW
WSW
WSW
W
W
W
(mph)
12-22
12-21
12-21
11-20
11-20
12-20
11-20
(in)
0
0
0
0
0
0
0
(%)
73
69
89
80
62
40
48

Sun elevation

/ 20.2°
sun-icon
UV 1
06:45
19:36
Waxing gibbous moon (124°)
18:49
24:00

METAR for 57.92°N 56.02°E (USPP)

Time Conditions Temperature/
Dewpoint
Wind Visibility Weather Clouds Pressure Change Raw
MVFR 42.8°F / 41°F 270º 14kt >10km - Overcast 1400ft 1001 Temporary: Visibility 3200. Light Rain . Overcast 400ft. RMK QFE740 . Runway 21: Wet or puddles, 51-100% contamination with 1mm, friction coefficient 0.50. USPP 161130Z 27007MPS 9999 OVC014 06/05 Q1001 R21/290150 TEMPO 3200 -RA OVC004 RMK QFE740
MVFR 42.8°F / 41°F 270º 12kt >10km Light Rain 1.00mm precipitation Vertical Visibility of 0ft. 1001 Temporary: Visibility 3200. Light Rain . Overcast 400ft. RMK QFE740 . Runway 21: Wet or puddles, 51-100% contamination with 1mm, friction coefficient 0.50. USPP 161100Z 27006MPS 9999 -RA OVC013 06/05 Q1001 R21/290150 TEMPO 3200 -RA OVC004 RMK QFE740
MVFR 42.8°F / 41°F 270º 16kt >10km Light Rain 1.00mm precipitation Vertical Visibility of 0ft. 1001 Temporary: Visibility 3200. Light Rain . Overcast 400ft. RMK QFE740 . Runway 21: Wet or puddles, 51-100% contamination with 1mm, friction coefficient 0.50. USPP 161030Z 27008MPS 9999 -RA BKN011 06/05 Q1001 R21/290150 TEMPO 3200 -RA OVC004 RMK QFE740
IFR 42.8°F / 41°F 270º 12kt 9000m Light Rain 1.00mm precipitation Vertical Visibility of 0ft. 1001 No Significant change. Runway 21: Wet or puddles, 51-100% contamination with 1mm, friction coefficient 0.50. USPP 161000Z 27006MPS 9000 -RA OVC009 06/05 Q1001 R21/290150 NOSIG RMK QFE740
MVFR 44.6°F / 41°F 270º 12kt >10km Light Rain 1.00mm precipitation Vertical Visibility of 0ft. 1000 No Significant change. Runway 21: Wet or puddles, 51-100% contamination with 1mm, friction coefficient 0.50. USPP 160930Z 27006MPS 9999 -RA OVC014 07/05 Q1000 R21/290150 NOSIG RMK QFE740
MVFR 44.6°F / 41°F 270º 10kt >10km Light Rain 1.00mm precipitation Vertical Visibility of 0ft. 1000 No Significant change. Runway 21: Damp, 51-100% contamination with <1mm, friction coefficient 0.55. USPP 160900Z 27005MPS 9999 -RA OVC015 07/05 Q1000 R21/190055 NOSIG RMK QFE740
MVFR 44.6°F / 37.4°F 260º 12kt >10km Light Rain 1.00mm precipitation Vertical Visibility of 0ft. 1000 No Significant change. Runway 21: Damp, 51-100% contamination with <1mm, friction coefficient 0.55. USPP 160830Z 26006MPS 9999 -RA OVC018 07/03 Q1000 R21/190055 NOSIG RMK QFE739
MVFR 44.6°F / 37.4°F 270º 14kt >10km Light Rain 1.00mm precipitation Vertical Visibility of 0ft. 1000 No Significant change. Runway 21: Damp, 51-100% contamination with <1mm, friction coefficient 0.55. USPP 160800Z 27007MPS 9999 -RA OVC021 07/03 Q1000 R21/190055 NOSIG RMK QFE740
MVFR 44.6°F / 37.4°F 270º 12kt >10km Light Rain 1.00mm precipitation Vertical Visibility of 0ft. 1000 No Significant change. Runway 21: Damp, 51-100% contamination with <1mm, friction coefficient 0.55. USPP 160730Z 27006MPS 9999 -RA BKN018 07/03 Q1000 R21/190055 NOSIG RMK QFE740
MVFR 44.6°F / 37.4°F 270º 12kt >10km - Broken Clouds 1900ft 1000 No Significant change. Runway 21: Damp, 51-100% contamination with <1mm, friction coefficient 0.55. USPP 160700Z 27006MPS 9999 BKN019 07/03 Q1000 R21/190055 NOSIG RMK QFE739
MVFR 44.6°F / 37.4°F 280º 12kt >10km - Broken Clouds 1600ft 1000 No Significant change. Runway 21: Damp, 51-100% contamination with <1mm, friction coefficient 0.55. USPP 160630Z 28006MPS 9999 BKN016 07/03 Q1000 R21/190055 NOSIG RMK QFE739
MVFR 42.8°F / 39.2°F 290º variable 260º to 320º 10kt >10km - Broken Clouds 1600ft 1000 No Significant change. Runway 21: Damp, 51-100% contamination with <1mm, friction coefficient 0.55. USPP 160600Z 29005MPS 260V320 9999 BKN016 06/04 Q1000 R21/190055 NOSIG RMK QFE739
MVFR 42.8°F / 39.2°F 290º variable 260º to 320º 12kt >10km - Broken Clouds 1500ft 1000 No Significant change. Runway 21: Wet or puddles, 51-100% contamination with 1mm, friction coefficient 0.50. USPP 160530Z 29006MPS 260V320 9999 BKN015 06/04 Q1000 R21/290150 NOSIG RMK QFE739
MVFR 42.8°F / 39.2°F 280º 12kt >10km - Broken Clouds 1400ft 1000 No Significant change. Runway 21: Wet or puddles, 51-100% contamination with 1mm, friction coefficient 0.50. USPP 160500Z 28006MPS 9999 BKN014 06/04 Q1000 R21/290150 NOSIG RMK QFE739
MVFR 42.8°F / 39.2°F 290º 14kt >10km - Broken Clouds 1600ft 1000 No Significant change. Runway 21: Wet or puddles, 51-100% contamination with 1mm, friction coefficient 0.50. USPP 160430Z 29007MPS 9999 BKN016 06/04 Q1000 R21/290150 NOSIG RMK QFE739
MVFR 42.8°F / 39.2°F 290º variable 270º to 330º 10kt >10km - Broken Clouds 1700ft 1000 No Significant change. Runway 21: Wet or puddles, 51-100% contamination with 1mm, friction coefficient 0.50. USPP 160400Z 29005MPS 270V330 9999 BKN017 06/04 Q1000 R21/290150 NOSIG RMK QFE739
MVFR 42.8°F / 39.2°F 290º 10kt >10km - Broken Clouds 2300ft 1000 No Significant change. Runway 21: Wet or puddles, 51-100% contamination with 1mm, friction coefficient 0.50. USPP 160330Z 29005MPS 9999 BKN023 06/04 Q1000 R21/290150 NOSIG RMK QFE739
MVFR 42.8°F / 39.2°F 280º 14kt >10km - Scattered Clouds 900ft 1000 No Significant change. Runway 21: Wet or puddles, 51-100% contamination with 1mm, friction coefficient 0.50. USPP 160300Z 28007MPS 9999 SCT009 OVC024 06/04 Q1000 R21/290150 NOSIG RMK QFE739
MVFR 42.8°F / 41°F 290º 10kt >10km - Broken Clouds 1000ft 1000 No Significant change. Runway 21: Wet or puddles, 51-100% contamination with 1mm, friction coefficient 0.50. USPP 160230Z 29005MPS 9999 BKN010 OVC023 06/05 Q1000 R21/290150 NOSIG RMK QFE739
IFR 41°F / 41°F 290º 10kt >10km Light Rain 1.00mm precipitation Vertical Visibility of 0ft. 1000 No Significant change. Runway 21: Wet or puddles, 51-100% contamination with 1mm, friction coefficient 0.50. USPP 160200Z 29005MPS 9999 -RA BKN007 OVC018 05/05 Q1000 R21/290150 NOSIG RMK QFE739
IFR 42.8°F / 42.8°F 300º 10kt 9000m Light Rain 1.00mm precipitation Vertical Visibility of 0ft. 999 No Significant change. Runway 21: Wet or puddles, 51-100% contamination with 1mm, friction coefficient 0.50. USPP 160130Z 30005MPS 9000 -RA BKN009 OVC015 06/06 Q0999 R21/290150 NOSIG RMK QFE739
IFR 42.8°F / 42.8°F 300º 8kt >10km Light Rain 1.00mm precipitation Vertical Visibility of 0ft. 999 No Significant change. Runway 21: Wet or puddles, 51-100% contamination with 1mm, friction coefficient 0.50. USPP 160100Z 30004MPS 9999 -RA BKN006 OVC018 06/06 Q0999 R21/290150 NOSIG RMK QBB190 QFE739
MVFR 42.8°F / 42.8°F 280º 8kt >10km - Scattered Clouds 500ft 999 No Significant change. Runway 21: Wet or puddles, 51-100% contamination with 1mm, friction coefficient 0.50. USPP 160030Z 28004MPS 9999 SCT005 BKN021CB 06/06 Q0999 R21/290150 NOSIG RMK QBB170 QFE739
MVFR 42.8°F / 42.8°F 280º 10kt 9000m Light Showers Rain 3.00mm precipitation Vertical Visibility of 0ft. 999 No Significant change. Runway 21: Wet or puddles, 51-100% contamination with 1mm, friction coefficient 0.50. USPP 160000Z 28005MPS 9000 -SHRA SCT006 BKN017CB 06/06 Q0999 R21/290150 NOSIG RMK QBB190 QFE739

MVFR

42.8°F / 41°F

[More]
Wind 270º 14kt
Visibility >10km
Weather -
Clouds Overcast 1400ft
Pressure 1001
Change Temporary: Visibility 3200. Light Rain . Overcast 400ft. RMK QFE740 . Runway 21: Wet or puddles, 51-100% contamination with 1mm, friction coefficient 0.50.
Raw USPP 161130Z 27007MPS 9999 OVC014 06/05 Q1001 R21/290150 TEMPO 3200 -RA OVC004 RMK QFE740

MVFR

42.8°F / 41°F

[More]
Wind 270º 12kt
Visibility >10km
Weather Light Rain 1.00mm precipitation
Clouds Vertical Visibility of 0ft.
Pressure 1001
Change Temporary: Visibility 3200. Light Rain . Overcast 400ft. RMK QFE740 . Runway 21: Wet or puddles, 51-100% contamination with 1mm, friction coefficient 0.50.
Raw USPP 161100Z 27006MPS 9999 -RA OVC013 06/05 Q1001 R21/290150 TEMPO 3200 -RA OVC004 RMK QFE740

MVFR

42.8°F / 41°F

[More]
Wind 270º 16kt
Visibility >10km
Weather Light Rain 1.00mm precipitation
Clouds Vertical Visibility of 0ft.
Pressure 1001
Change Temporary: Visibility 3200. Light Rain . Overcast 400ft. RMK QFE740 . Runway 21: Wet or puddles, 51-100% contamination with 1mm, friction coefficient 0.50.
Raw USPP 161030Z 27008MPS 9999 -RA BKN011 06/05 Q1001 R21/290150 TEMPO 3200 -RA OVC004 RMK QFE740

IFR

42.8°F / 41°F

[More]
Wind 270º 12kt
Visibility 9000m
Weather Light Rain 1.00mm precipitation
Clouds Vertical Visibility of 0ft.
Pressure 1001
Change No Significant change. Runway 21: Wet or puddles, 51-100% contamination with 1mm, friction coefficient 0.50.
Raw USPP 161000Z 27006MPS 9000 -RA OVC009 06/05 Q1001 R21/290150 NOSIG RMK QFE740

MVFR

44.6°F / 41°F

[More]
Wind 270º 12kt
Visibility >10km
Weather Light Rain 1.00mm precipitation
Clouds Vertical Visibility of 0ft.
Pressure 1000
Change No Significant change. Runway 21: Wet or puddles, 51-100% contamination with 1mm, friction coefficient 0.50.
Raw USPP 160930Z 27006MPS 9999 -RA OVC014 07/05 Q1000 R21/290150 NOSIG RMK QFE740

MVFR

44.6°F / 41°F

[More]
Wind 270º 10kt
Visibility >10km
Weather Light Rain 1.00mm precipitation
Clouds Vertical Visibility of 0ft.
Pressure 1000
Change No Significant change. Runway 21: Damp, 51-100% contamination with <1mm, friction coefficient 0.55.
Raw USPP 160900Z 27005MPS 9999 -RA OVC015 07/05 Q1000 R21/190055 NOSIG RMK QFE740

MVFR

44.6°F / 37.4°F

[More]
Wind 260º 12kt
Visibility >10km
Weather Light Rain 1.00mm precipitation
Clouds Vertical Visibility of 0ft.
Pressure 1000
Change No Significant change. Runway 21: Damp, 51-100% contamination with <1mm, friction coefficient 0.55.
Raw USPP 160830Z 26006MPS 9999 -RA OVC018 07/03 Q1000 R21/190055 NOSIG RMK QFE739

MVFR

44.6°F / 37.4°F

[More]
Wind 270º 14kt
Visibility >10km
Weather Light Rain 1.00mm precipitation
Clouds Vertical Visibility of 0ft.
Pressure 1000
Change No Significant change. Runway 21: Damp, 51-100% contamination with <1mm, friction coefficient 0.55.
Raw USPP 160800Z 27007MPS 9999 -RA OVC021 07/03 Q1000 R21/190055 NOSIG RMK QFE740

MVFR

44.6°F / 37.4°F

[More]
Wind 270º 12kt
Visibility >10km
Weather Light Rain 1.00mm precipitation
Clouds Vertical Visibility of 0ft.
Pressure 1000
Change No Significant change. Runway 21: Damp, 51-100% contamination with <1mm, friction coefficient 0.55.
Raw USPP 160730Z 27006MPS 9999 -RA BKN018 07/03 Q1000 R21/190055 NOSIG RMK QFE740

MVFR

44.6°F / 37.4°F

[More]
Wind 270º 12kt
Visibility >10km
Weather -
Clouds Broken Clouds 1900ft
Pressure 1000
Change No Significant change. Runway 21: Damp, 51-100% contamination with <1mm, friction coefficient 0.55.
Raw USPP 160700Z 27006MPS 9999 BKN019 07/03 Q1000 R21/190055 NOSIG RMK QFE739

MVFR

44.6°F / 37.4°F

[More]
Wind 280º 12kt
Visibility >10km
Weather -
Clouds Broken Clouds 1600ft
Pressure 1000
Change No Significant change. Runway 21: Damp, 51-100% contamination with <1mm, friction coefficient 0.55.
Raw USPP 160630Z 28006MPS 9999 BKN016 07/03 Q1000 R21/190055 NOSIG RMK QFE739

MVFR

42.8°F / 39.2°F

[More]
Wind 290º variable 260º to 320º 10kt
Visibility >10km
Weather -
Clouds Broken Clouds 1600ft
Pressure 1000
Change No Significant change. Runway 21: Damp, 51-100% contamination with <1mm, friction coefficient 0.55.
Raw USPP 160600Z 29005MPS 260V320 9999 BKN016 06/04 Q1000 R21/190055 NOSIG RMK QFE739

MVFR

42.8°F / 39.2°F

[More]
Wind 290º variable 260º to 320º 12kt
Visibility >10km
Weather -
Clouds Broken Clouds 1500ft
Pressure 1000
Change No Significant change. Runway 21: Wet or puddles, 51-100% contamination with 1mm, friction coefficient 0.50.
Raw USPP 160530Z 29006MPS 260V320 9999 BKN015 06/04 Q1000 R21/290150 NOSIG RMK QFE739

MVFR

42.8°F / 39.2°F

[More]
Wind 280º 12kt
Visibility >10km
Weather -
Clouds Broken Clouds 1400ft
Pressure 1000
Change No Significant change. Runway 21: Wet or puddles, 51-100% contamination with 1mm, friction coefficient 0.50.
Raw USPP 160500Z 28006MPS 9999 BKN014 06/04 Q1000 R21/290150 NOSIG RMK QFE739

MVFR

42.8°F / 39.2°F

[More]
Wind 290º 14kt
Visibility >10km
Weather -
Clouds Broken Clouds 1600ft
Pressure 1000
Change No Significant change. Runway 21: Wet or puddles, 51-100% contamination with 1mm, friction coefficient 0.50.
Raw USPP 160430Z 29007MPS 9999 BKN016 06/04 Q1000 R21/290150 NOSIG RMK QFE739

MVFR

42.8°F / 39.2°F

[More]
Wind 290º variable 270º to 330º 10kt
Visibility >10km
Weather -
Clouds Broken Clouds 1700ft
Pressure 1000
Change No Significant change. Runway 21: Wet or puddles, 51-100% contamination with 1mm, friction coefficient 0.50.
Raw USPP 160400Z 29005MPS 270V330 9999 BKN017 06/04 Q1000 R21/290150 NOSIG RMK QFE739

MVFR

42.8°F / 39.2°F

[More]
Wind 290º 10kt
Visibility >10km
Weather -
Clouds Broken Clouds 2300ft
Pressure 1000
Change No Significant change. Runway 21: Wet or puddles, 51-100% contamination with 1mm, friction coefficient 0.50.
Raw USPP 160330Z 29005MPS 9999 BKN023 06/04 Q1000 R21/290150 NOSIG RMK QFE739

MVFR

42.8°F / 39.2°F

[More]
Wind 280º 14kt
Visibility >10km
Weather -
Clouds Scattered Clouds 900ft
Pressure 1000
Change No Significant change. Runway 21: Wet or puddles, 51-100% contamination with 1mm, friction coefficient 0.50.
Raw USPP 160300Z 28007MPS 9999 SCT009 OVC024 06/04 Q1000 R21/290150 NOSIG RMK QFE739

MVFR

42.8°F / 41°F

[More]
Wind 290º 10kt
Visibility >10km
Weather -
Clouds Broken Clouds 1000ft
Pressure 1000
Change No Significant change. Runway 21: Wet or puddles, 51-100% contamination with 1mm, friction coefficient 0.50.
Raw USPP 160230Z 29005MPS 9999 BKN010 OVC023 06/05 Q1000 R21/290150 NOSIG RMK QFE739

IFR

41°F / 41°F

[More]
Wind 290º 10kt
Visibility >10km
Weather Light Rain 1.00mm precipitation
Clouds Vertical Visibility of 0ft.
Pressure 1000
Change No Significant change. Runway 21: Wet or puddles, 51-100% contamination with 1mm, friction coefficient 0.50.
Raw USPP 160200Z 29005MPS 9999 -RA BKN007 OVC018 05/05 Q1000 R21/290150 NOSIG RMK QFE739

IFR

42.8°F / 42.8°F

[More]
Wind 300º 10kt
Visibility 9000m
Weather Light Rain 1.00mm precipitation
Clouds Vertical Visibility of 0ft.
Pressure 999
Change No Significant change. Runway 21: Wet or puddles, 51-100% contamination with 1mm, friction coefficient 0.50.
Raw USPP 160130Z 30005MPS 9000 -RA BKN009 OVC015 06/06 Q0999 R21/290150 NOSIG RMK QFE739

IFR

42.8°F / 42.8°F

[More]
Wind 300º 8kt
Visibility >10km
Weather Light Rain 1.00mm precipitation
Clouds Vertical Visibility of 0ft.
Pressure 999
Change No Significant change. Runway 21: Wet or puddles, 51-100% contamination with 1mm, friction coefficient 0.50.
Raw USPP 160100Z 30004MPS 9999 -RA BKN006 OVC018 06/06 Q0999 R21/290150 NOSIG RMK QBB190 QFE739

MVFR

42.8°F / 42.8°F

[More]
Wind 280º 8kt
Visibility >10km
Weather -
Clouds Scattered Clouds 500ft
Pressure 999
Change No Significant change. Runway 21: Wet or puddles, 51-100% contamination with 1mm, friction coefficient 0.50.
Raw USPP 160030Z 28004MPS 9999 SCT005 BKN021CB 06/06 Q0999 R21/290150 NOSIG RMK QBB170 QFE739

MVFR

42.8°F / 42.8°F

[More]
Wind 280º 10kt
Visibility 9000m
Weather Light Showers Rain 3.00mm precipitation
Clouds Vertical Visibility of 0ft.
Pressure 999
Change No Significant change. Runway 21: Wet or puddles, 51-100% contamination with 1mm, friction coefficient 0.50.
Raw USPP 160000Z 28005MPS 9000 -SHRA SCT006 BKN017CB 06/06 Q0999 R21/290150 NOSIG RMK QBB190 QFE739

TAF for 57.92°N 56.02°E (USPP)

From till


From till Wind 270º 6kt. Gust 29kt. Visibility 6000m. Light Rain . Broken Clouds 1600ft.
Temporarly from till Light Showers Rain . Scattered Clouds 600ft. Broken Clouds 1100ft.
Becoming from till Wind 320º 6kt. Gust 27kt. Visibility 6000m. Light Rain . Broken Clouds 1600ft.

Raw: TAF USPP 161056Z 1612/1712 27003G15MPS 6000 -RA BKN016 TEMPO 1612/1618 -SHRA SCT006 BKN011CB BECMG 1615/1616 32003G14MPS

Current satellite and rain images for 57.92°N 56.02°E

The location marker is placed on 57.92°N 56.02°E. [More]

The real-time satellite image combines visible light during daytime with infrared radiation during nighttime. At night, the image is not dark as infrared radiation can detect temperature differences. Unfortunately, low clouds and fog are difficult to distinguish from ground temperatures and thus can be almost invisible during the night. Meteosat satellite images for Europe are updated in real-time every 5 minutes. GOES-16/GOES-17 (North & South America) and Himawari (Asia) images update every 10 minutes.

Copyright 2021 EUMETSAT / meteoblue. / Copyright 2021 meteoblue

Radar and precipitation nowcast for 57.92°N 56.02°E

Drizzle
Light
Moderate
Heavy
Very Heavy
Hail

The location marker is placed on 57.92°N 56.02°E. This animation shows the precipitation radar for the last hour, as well as a 1h forecast. Drizzle or light snow fall might be invisible for the radar. Precipitation intensity is colour coded, ranging from light blue to orange.